createdAt,value
2019-03-05T00:01:19.804Z,55.67
2019-03-05T00:06:24.019Z,55.41
2019-03-05T00:11:28.239Z,55.24
2019-03-05T00:16:32.553Z,54.89
2019-03-05T00:21:36.768Z,55.29
2019-03-05T00:26:40.985Z,55.27
2019-03-05T00:31:45.284Z,55.10
2019-03-05T00:37:02.735Z,55.41
2019-03-05T00:42:47.004Z,55.20
2019-03-05T00:48:22.073Z,55.13
2019-03-05T00:54:05.648Z,54.64
2019-03-05T00:59:32.398Z,55.13
2019-03-05T01:05:17.432Z,55.15
2019-03-05T01:10:21.847Z,55.03
2019-03-05T01:15:26.290Z,54.67
2019-03-05T01:20:30.513Z,54.53
2019-03-05T01:25:34.930Z,54.51
2019-03-05T01:32:01.732Z,54.25
2019-03-05T01:37:02.654Z,54.41
2019-03-05T01:42:07.776Z,54.76
2019-03-05T01:47:11.994Z,54.52
2019-03-05T01:52:16.227Z,54.85
2019-03-05T01:57:20.443Z,55.25
2019-03-05T02:02:24.657Z,55.25
2019-03-05T02:07:28.877Z,55.46
2019-03-05T02:12:33.128Z,55.71
2019-03-05T02:17:37.373Z,55.79
2019-03-05T02:22:51.722Z,55.94
2019-03-05T02:28:26.364Z,55.86
2019-03-05T02:34:14.655Z,56.15
2019-03-05T02:40:11.965Z,56.16
2019-03-05T02:46:12.724Z,56.42
2019-03-05T02:52:10.173Z,56.87
2019-03-05T02:57:12.667Z,57.21
2019-03-05T03:02:34.594Z,58.00
2019-03-05T03:07:38.801Z,58.33
2019-03-05T03:12:43.678Z,58.66
2019-03-05T03:17:48.736Z,59.38
2019-03-05T03:22:53.056Z,59.66
2019-03-05T03:27:57.347Z,59.88
2019-03-05T03:33:01.581Z,59.88
2019-03-05T03:38:05.796Z,59.95
2019-03-05T03:43:10.046Z,59.78
2019-03-05T03:48:14.462Z,59.39
2019-03-05T03:53:18.691Z,59.29
2019-03-05T03:58:22.920Z,59.14
2019-03-05T04:03:27.181Z,58.91
2019-03-05T04:08:38.925Z,59.05
2019-03-05T04:13:43.190Z,59.11
2019-03-05T04:18:47.411Z,59.36
2019-03-05T04:23:51.731Z,59.22
2019-03-05T04:28:55.942Z,59.70
2019-03-05T04:34:00.213Z,60.03
2019-03-05T04:39:06.539Z,60.56
2019-03-05T04:44:10.786Z,61.30
2019-03-05T04:49:30.809Z,61.78
2019-03-05T04:54:35.025Z,62.41
2019-03-05T04:59:39.233Z,62.94
2019-03-05T05:04:43.453Z,63.22
2019-03-05T05:09:47.687Z,63.75
2019-03-05T05:14:51.902Z,64.15
2019-03-05T05:19:56.117Z,64.33
2019-03-05T05:25:00.362Z,64.24
2019-03-05T05:30:04.937Z,64.33
2019-03-05T05:35:09.170Z,64.31
2019-03-05T05:40:30.614Z,64.20
2019-03-05T05:45:38.525Z,64.08
2019-03-05T05:50:42.746Z,63.88
2019-03-05T05:55:47.144Z,63.88
2019-03-05T06:00:56.619Z,63.84
2019-03-05T06:06:01.017Z,63.82
2019-03-05T06:11:05.469Z,63.59
2019-03-05T06:16:09.688Z,63.27
2019-03-05T06:21:13.901Z,63.11
2019-03-05T06:26:18.127Z,63.40
2019-03-05T06:31:22.369Z,63.00
2019-03-05T06:36:26.823Z,62.94
2019-03-05T06:41:31.060Z,62.42
2019-03-05T06:46:35.311Z,62.33
2019-03-05T06:51:39.511Z,62.38
2019-03-05T06:56:43.736Z,62.20
2019-03-05T07:01:47.959Z,61.81
2019-03-05T07:06:59.298Z,61.77
2019-03-05T07:12:11.020Z,61.68
2019-03-05T07:17:22.596Z,61.69
2019-03-05T07:22:46.117Z,61.35
2019-03-05T07:27:54.115Z,60.85
2019-03-05T07:32:59.775Z,60.18
2019-03-05T07:38:04.219Z,59.35
2019-03-05T07:43:08.433Z,59.02
2019-03-05T07:48:12.665Z,57.81
2019-03-05T07:53:16.909Z,57.62
2019-03-05T07:58:21.130Z,56.91
2019-03-05T08:03:25.371Z,56.77
2019-03-05T08:09:07.295Z,56.07
2019-03-05T08:14:57.550Z,55.84
2019-03-05T08:20:01.775Z,55.69
2019-03-05T08:25:07.936Z,56.12
2019-03-05T08:30:14.943Z,55.84
2019-03-05T08:35:19.339Z,55.30
2019-03-05T08:40:23.989Z,54.86
2019-03-05T08:45:29.733Z,54.65
2019-03-05T08:50:34.111Z,55.24
2019-03-05T08:55:38.451Z,55.46
2019-03-05T09:00:42.678Z,55.31
2019-03-05T09:05:47.098Z,54.76
2019-03-05T09:10:52.745Z,53.70
2019-03-05T09:15:56.968Z,52.12
2019-03-05T09:21:01.220Z,52.02
2019-03-05T09:26:05.650Z,53.29
2019-03-05T09:31:09.888Z,52.61
2019-03-05T09:36:14.155Z,52.40
2019-03-05T09:41:18.398Z,53.70
2019-03-05T09:46:22.631Z,54.18
2019-03-05T09:51:26.969Z,57.87
2019-03-05T09:56:31.186Z,61.06
2019-03-05T10:01:35.626Z,56.30
2019-03-05T10:06:39.842Z,58.06
2019-03-05T10:11:44.066Z,57.22
2019-03-05T10:16:48.494Z,55.59
2019-03-05T10:21:52.938Z,53.94
2019-03-05T10:26:57.391Z,54.18
2019-03-05T10:32:01.810Z,52.48
2019-03-05T10:37:12.633Z,51.59
2019-03-05T10:42:12.261Z,51.56
2019-03-05T10:47:16.813Z,49.09
2019-03-05T10:52:21.038Z,47.58
2019-03-05T10:57:25.261Z,47.02
2019-03-05T11:02:29.589Z,46.78
2019-03-05T11:07:34.016Z,45.90
2019-03-05T11:12:39.263Z,45.97
2019-03-05T11:17:43.474Z,45.75
2019-03-05T11:22:48.298Z,46.35
2019-03-05T11:27:52.536Z,46.96
2019-03-05T11:32:56.813Z,47.35
2019-03-05T11:38:01.095Z,44.21
2019-03-05T11:43:13.631Z,46.06
2019-03-05T11:48:18.163Z,46.86
2019-03-05T11:53:22.739Z,46.25
2019-03-05T11:58:26.964Z,46.58
2019-03-05T12:03:31.280Z,46.80
2019-03-05T12:08:35.494Z,46.44
2019-03-05T12:13:39.726Z,48.55
2019-03-05T12:18:43.959Z,51.91
2019-03-05T12:23:48.388Z,47.12
2019-03-05T12:28:52.706Z,41.72
2019-03-05T12:33:56.946Z,39.71
2019-03-05T12:39:01.206Z,35.83
2019-03-05T12:44:05.586Z,38.95
2019-03-05T12:49:09.776Z,40.29
2019-03-05T12:54:13.986Z,41.71
2019-03-05T12:59:18.206Z,39.55
2019-03-05T13:04:22.468Z,37.80
2019-03-05T13:09:26.749Z,39.14
2019-03-05T13:14:31.137Z,44.12
2019-03-05T13:19:35.668Z,56.24
2019-03-05T13:24:40.296Z,55.83
2019-03-05T13:29:44.523Z,52.19
2019-03-05T13:34:48.772Z,50.09
2019-03-05T13:39:54.975Z,49.49
2019-03-05T13:44:59.284Z,48.63
2019-03-05T13:50:27.514Z,50.73
2019-03-05T13:56:04.002Z,49.81
2019-03-05T14:01:10.254Z,53.85
2019-03-05T14:06:48.188Z,55.78
2019-03-05T14:11:53.666Z,51.08
2019-03-05T14:17:18.581Z,50.85
2019-03-05T14:22:22.831Z,51.58
2019-03-05T14:27:27.131Z,51.64
2019-03-05T14:32:31.400Z,51.49
2019-03-05T14:37:35.669Z,51.99
2019-03-05T14:42:40.038Z,52.59
2019-03-05T14:47:44.255Z,52.62
2019-03-05T14:52:48.503Z,52.87
2019-03-05T14:57:52.743Z,51.83
2019-03-05T15:02:56.975Z,50.81
2019-03-05T15:08:02.188Z,50.32
2019-03-05T15:13:15.387Z,49.81
2019-03-05T15:18:12.385Z,49.56
2019-03-05T15:23:16.731Z,50.32
2019-03-05T15:28:20.968Z,51.04
2019-03-05T15:33:25.255Z,51.30
2019-03-05T15:38:29.559Z,51.44
2019-03-05T15:43:33.831Z,52.19
2019-03-05T15:48:38.026Z,52.76
2019-03-05T15:53:42.323Z,52.45
2019-03-05T15:58:47.435Z,53.95
2019-03-05T16:03:51.660Z,55.41
2019-03-05T16:08:57.948Z,56.49
2019-03-05T16:14:01.898Z,57.64
2019-03-05T16:19:06.213Z,58.86
2019-03-05T16:24:10.447Z,59.64
2019-03-05T16:29:16.207Z,59.49
2019-03-05T16:34:36.327Z,61.78
2019-03-05T16:39:52.027Z,73.08
2019-03-05T16:45:08.915Z,80.29
2019-03-05T16:50:38.599Z,78.71
2019-03-05T16:56:03.407Z,79.63
2019-03-05T17:01:21.581Z,76.90
2019-03-05T17:06:43.568Z,75.99
2019-03-05T17:11:54.866Z,77.69
2019-03-05T17:16:59.131Z,75.42
2019-03-05T17:22:03.394Z,74.99
2019-03-05T17:27:07.659Z,72.63
2019-03-05T17:32:12.105Z,72.00
2019-03-05T17:37:16.556Z,71.55
2019-03-05T17:42:20.814Z,72.28
2019-03-05T17:47:25.106Z,72.47
2019-03-05T17:52:29.361Z,72.04
2019-03-05T17:57:33.604Z,72.03
2019-03-05T18:02:37.864Z,72.79
2019-03-05T18:07:42.222Z,72.98
2019-03-05T18:12:46.478Z,72.05
2019-03-05T18:17:51.477Z,70.73
2019-03-05T18:22:55.723Z,71.28
2019-03-05T18:28:00.081Z,70.71
2019-03-05T18:33:04.517Z,71.15
2019-03-05T18:38:08.830Z,71.34
2019-03-05T18:43:13.118Z,71.96
2019-03-05T18:48:17.371Z,70.83
2019-03-05T18:53:21.625Z,71.33
2019-03-05T18:58:25.880Z,70.50
2019-03-05T19:10:04.084Z,71.10
2019-03-05T19:15:09.444Z,71.11
2019-03-05T19:20:16.093Z,70.73
2019-03-05T19:25:25.608Z,70.65
2019-03-05T19:30:32.382Z,70.89
2019-03-05T19:35:37.338Z,70.63
2019-03-05T19:40:41.642Z,71.39
2019-03-05T19:45:45.957Z,71.39
2019-03-05T19:50:50.511Z,72.05
2019-03-05T19:55:54.801Z,73.46
2019-03-05T20:01:17.556Z,72.80
2019-03-05T20:06:22.368Z,72.86
2019-03-05T20:11:27.361Z,73.84
2019-03-05T20:16:32.203Z,73.44
2019-03-05T20:21:37.308Z,72.99
2019-03-05T20:26:42.084Z,73.40
2019-03-05T20:31:47.005Z,73.15
2019-03-05T20:36:52.099Z,73.10
2019-03-05T20:41:57.105Z,71.92
2019-03-05T20:47:02.227Z,72.06
2019-03-05T20:52:07.439Z,72.05
2019-03-05T20:57:12.712Z,72.48
2019-03-05T21:02:17.890Z,72.69
2019-03-05T21:07:23.067Z,72.96
2019-03-05T21:12:28.241Z,73.39
2019-03-05T21:17:33.152Z,73.52
2019-03-05T21:22:37.857Z,73.32
2019-03-05T21:27:43.369Z,73.37
2019-03-05T21:32:47.863Z,73.06
2019-03-05T21:37:52.677Z,72.47
2019-03-05T21:42:57.223Z,72.36
2019-03-05T21:48:01.685Z,72.11
2019-03-05T21:53:06.518Z,71.93
2019-03-05T21:58:10.780Z,72.22
2019-03-05T22:03:15.029Z,72.12
2019-03-05T22:08:19.306Z,71.71
2019-03-05T22:13:23.673Z,71.42
2019-03-05T22:18:29.662Z,71.88
2019-03-05T22:23:34.118Z,72.44
2019-03-05T22:28:38.396Z,72.06
2019-03-05T22:33:42.652Z,72.50
2019-03-05T22:38:46.899Z,72.46
2019-03-05T22:43:51.142Z,72.54
2019-03-05T22:48:55.405Z,72.09
2019-03-05T22:53:59.647Z,71.83
2019-03-05T22:59:03.891Z,71.41
2019-03-05T23:04:09.141Z,71.21
2019-03-05T23:09:19.532Z,71.02
2019-03-05T23:14:23.977Z,71.29
2019-03-05T23:19:29.083Z,70.91
2019-03-05T23:24:33.314Z,70.64
2019-03-05T23:29:42.044Z,70.61
2019-03-05T23:34:46.294Z,70.68
2019-03-05T23:39:50.555Z,70.75
2019-03-05T23:44:54.798Z,71.02
2019-03-05T23:49:59.042Z,71.07
2019-03-05T23:55:03.601Z,70.77
